createdAt,value
2023-03-05T00:00:15.708Z,99.90
2023-03-05T00:10:21.013Z,99.90
2023-03-05T00:20:24.809Z,99.90
2023-03-05T00:30:29.860Z,99.90
2023-03-05T00:40:38.084Z,99.90
2023-03-05T00:50:43.082Z,99.90
2023-03-05T01:00:46.875Z,99.90
2023-03-05T01:10:52.083Z,99.90
2023-03-05T01:20:55.972Z,97.60
2023-03-05T01:31:00.982Z,95.50
2023-03-05T01:41:05.060Z,95.10
2023-03-05T01:51:10.174Z,95.10
2023-03-05T02:01:14.184Z,95.60
2023-03-05T02:11:19.272Z,96.20
2023-03-05T02:21:39.614Z,97.10
2023-03-05T02:31:43.342Z,97.20
2023-03-05T02:41:48.452Z,97.20
2023-03-05T02:51:52.405Z,97.50
2023-03-05T03:01:57.691Z,98.30
2023-03-05T03:12:01.389Z,96.80
2023-03-05T03:22:08.339Z,96.70
2023-03-05T03:32:12.051Z,98.00
2023-03-05T03:42:19.552Z,98.60
2023-03-05T03:52:23.945Z,98.50
2023-03-05T04:02:29.389Z,98.20
2023-03-05T04:12:33.079Z,98.00
2023-03-05T04:22:38.447Z,98.30
2023-03-05T04:32:42.167Z,97.70
2023-03-05T04:42:47.291Z,98.10
2023-03-05T04:52:50.893Z,98.00
2023-03-05T05:02:56.546Z,98.70
2023-03-05T05:13:00.231Z,98.30
2023-03-05T05:23:05.342Z,96.50
2023-03-05T05:33:09.205Z,94.00
2023-03-05T05:43:14.524Z,92.40
2023-03-05T05:53:18.222Z,92.40
2023-03-05T06:03:23.745Z,92.10
2023-03-05T06:13:27.460Z,92.30
2023-03-05T06:23:32.567Z,92.30
2023-03-05T06:33:37.726Z,92.60
2023-03-05T06:43:45.249Z,93.30
2023-03-05T06:53:50.243Z,93.40
2023-03-05T07:03:58.959Z,93.70
2023-03-05T07:14:04.754Z,93.20
2023-03-05T07:24:10.145Z,92.50
2023-03-05T07:34:15.266Z,92.70
2023-03-05T07:44:20.458Z,93.00
2023-03-05T07:54:24.176Z,93.50
2023-03-05T08:04:31.786Z,94.50
2023-03-05T08:14:36.568Z,96.00
2023-03-05T08:24:41.575Z,96.50
2023-03-05T08:34:45.751Z,96.70
2023-03-05T08:44:50.972Z,96.10
2023-03-05T08:54:54.699Z,96.60
2023-03-05T09:05:00.436Z,96.10
2023-03-05T09:15:04.350Z,95.40
2023-03-05T09:25:14.676Z,94.70
2023-03-05T09:35:18.535Z,92.30
2023-03-05T09:45:29.183Z,91.00
2023-03-05T09:55:40.391Z,90.10
2023-03-05T10:06:03.262Z,88.80
2023-03-05T10:16:32.837Z,87.90
2023-03-05T10:27:00.106Z,87.60
2023-03-05T10:37:33.017Z,86.70
2023-03-05T10:47:47.079Z,84.10
2023-03-05T10:57:51.348Z,83.90
2023-03-05T11:07:56.412Z,85.80
2023-03-05T11:18:24.041Z,86.20
2023-03-05T11:28:34.582Z,86.50
2023-03-05T11:38:48.111Z,87.80
2023-03-05T11:48:55.435Z,88.50
2023-03-05T11:59:04.687Z,88.40
2023-03-05T12:09:16.832Z,90.30
2023-03-05T12:19:47.070Z,89.90
2023-03-05T12:29:54.444Z,88.10
2023-03-05T12:40:04.880Z,86.40
2023-03-05T12:50:52.742Z,87.50
2023-03-05T13:01:04.437Z,86.40
2023-03-05T13:11:17.985Z,86.70
2023-03-05T13:21:27.024Z,85.50
2023-03-05T13:31:32.916Z,83.50
2023-03-05T13:41:36.685Z,86.40
2023-03-05T13:51:47.069Z,86.00
2023-03-05T14:01:53.932Z,84.90
2023-03-05T14:12:04.604Z,85.30
2023-03-05T14:22:30.899Z,82.80
2023-03-05T14:32:38.156Z,81.50
2023-03-05T14:42:53.641Z,81.90
2023-03-05T14:53:02.095Z,83.50
2023-03-05T15:03:06.693Z,84.70
2023-03-05T15:13:13.595Z,85.90
2023-03-05T15:23:18.658Z,87.00
2023-03-05T15:33:24.005Z,87.70
2023-03-05T15:43:27.862Z,87.90
2023-03-05T15:53:33.416Z,88.00
2023-03-05T16:03:37.889Z,88.80
2023-03-05T16:13:43.961Z,89.10
2023-03-05T16:23:49.758Z,90.40
2023-03-05T16:33:55.176Z,90.90
2023-03-05T16:44:00.406Z,91.10
2023-03-05T16:54:05.645Z,91.10
2023-03-05T17:04:09.741Z,91.30
2023-03-05T17:14:15.029Z,91.30
2023-03-05T17:24:20.850Z,91.50
2023-03-05T17:34:35.851Z,91.70
2023-03-05T17:44:40.362Z,92.10
2023-03-05T17:54:45.495Z,92.40
2023-03-05T18:04:52.209Z,92.20
2023-03-05T18:14:57.793Z,92.80
2023-03-05T18:25:01.540Z,93.50
2023-03-05T18:35:07.962Z,94.10
2023-03-05T18:45:14.526Z,94.50
2023-03-05T18:55:23.028Z,94.80
2023-03-05T19:05:27.933Z,94.80
2023-03-05T19:15:33.807Z,94.70
2023-03-05T19:25:37.626Z,94.80
2023-03-05T19:35:43.905Z,94.70
2023-03-05T19:45:47.749Z,94.00
2023-03-05T19:55:53.528Z,93.80
2023-03-05T20:05:57.466Z,94.00
2023-03-05T20:16:02.728Z,94.40
2023-03-05T20:26:06.992Z,94.50
2023-03-05T20:36:12.618Z,94.40
2023-03-05T20:46:21.044Z,94.80
2023-03-05T20:56:27.969Z,94.90
2023-03-05T21:06:33.250Z,94.80
2023-03-05T21:16:38.358Z,94.90
2023-03-05T21:26:42.025Z,95.10
2023-03-05T21:36:47.188Z,95.00
2023-03-05T21:46:51.416Z,95.80
2023-03-05T21:56:56.548Z,95.30
2023-03-05T22:07:00.145Z,95.20
2023-03-05T22:17:05.500Z,95.10
2023-03-05T22:27:09.727Z,95.40
2023-03-05T22:37:14.784Z,96.00
2023-03-05T22:47:18.437Z,97.50
2023-03-05T22:57:23.539Z,95.40
2023-03-05T23:07:29.454Z,95.50
2023-03-05T23:17:34.528Z,95.70
2023-03-05T23:27:38.189Z,95.80
2023-03-05T23:37:43.192Z,95.90
2023-03-05T23:47:48.260Z,95.90
2023-03-05T23:57:54.216Z,95.80
